Time;durP1;ratioP1;P1;durP2;ratioP2;P2;SDS_P1;SDS_P2;PMS_P1;PMS_P2;Temp;Humidity;BMP_temperature;BMP_pressure;BME280_temperature;BME280_humidity;BME280_pressure;Samples;Min_cycle;Max_cycle;Signal;HPM_P1;HPM_P2
2022/06/26 00:01:09;;;;;;;15.02;3.03;;;;;;;22.46;57.47;98439.75;4955658;29;20466;-49
2022/06/26 00:03:35;;;;;;;9.48;2.47;;;;;;;22.44;56.91;98439.22;4955699;29;20433;-50
2022/06/26 00:06:00;;;;;;;13.90;4.63;;;;;;;22.32;56.97;98447.63;4956870;29;20489;-49
2022/06/26 00:08:26;;;;;;;5.43;2.40;;;;;;;22.16;57.73;98438.16;4956781;28;20093;-50
2022/06/26 00:10:52;;;;;;;7.20;2.22;;;;;;;22.33;57.46;98436.66;4955574;29;20030;-49
2022/06/26 00:13:18;;;;;;;13.45;2.83;;;;;;;22.57;57.37;98427.84;4956736;28;20019;-49
2022/06/26 00:15:44;;;;;;;14.75;3.08;;;;;;;22.84;56.57;98426.44;4956701;28;20027;-50
2022/06/26 00:18:12;;;;;;;12.88;2.47;;;;;;;22.97;55.45;98419.59;4956705;28;20405;-49
2022/06/26 00:20:38;;;;;;;10.02;2.63;;;;;;;23.09;55.58;98417.31;4956786;28;20023;-49
2022/06/26 00:23:04;;;;;;;1.98;1.30;;;;;;;23.24;54.45;98419.78;4956616;28;20028;-49
2022/06/26 00:25:29;;;;;;;7.95;2.15;;;;;;;22.95;54.82;98422.56;4955320;29;20393;-49
2022/06/26 00:27:55;;;;;;;8.35;2.33;;;;;;;22.94;55.31;98416.41;4954873;29;20841;-50
2022/06/26 00:30:21;;;;;;;17.95;2.95;;;;;;;23.00;54.91;98422.50;4956430;28;20389;-49
2022/06/26 00:32:48;;;;;;;15.43;2.85;;;;;;;23.17;54.69;98411.31;4955183;29;20023;-49
2022/06/26 00:35:13;;;;;;;2.72;1.45;;;;;;;23.09;54.14;98420.78;4956309;28;20536;-49
2022/06/26 00:37:39;;;;;;;6.57;1.98;;;;;;;23.00;54.66;98413.66;4955980;28;20029;-50
2022/06/26 00:40:06;;;;;;;7.13;1.70;;;;;;;23.07;53.95;98411.47;4955005;29;20126;-50
2022/06/26 00:42:31;;;;;;;5.65;1.60;;;;;;;23.06;54.02;98407.16;4954903;29;20031;-50
2022/06/26 00:44:57;;;;;;;3.65;1.65;;;;;;;22.80;53.68;98410.19;4956099;29;20520;-50
2022/06/26 00:47:23;;;;;;;20.25;2.90;;;;;;;22.65;55.19;98407.69;4956093;28;20074;-49
2022/06/26 00:49:49;;;;;;;5.97;1.83;;;;;;;22.70;54.60;98404.97;4956045;28;20122;-50
2022/06/26 00:52:20;;;;;;;5.63;1.90;;;;;;;22.68;55.00;98404.44;4938810;29;20031;-49
2022/06/26 00:54:46;;;;;;;18.60;3.47;;;;;;;22.73;55.27;98404.38;4954754;29;20023;-49
2022/06/26 00:57:15;;;;;;;13.18;2.00;;;;;;;23.06;54.50;98405.31;4954664;29;20042;-50
2022/06/26 00:59:41;;;;;;;18.63;3.35;;;;;;;23.22;53.90;98408.56;4954699;29;20019;-50
2022/06/26 01:02:07;;;;;;;10.38;2.00;;;;;;;23.15;53.38;98410.00;4955976;28;20513;-50
2022/06/26 01:04:33;;;;;;;20.42;3.67;;;;;;;23.11;53.98;98404.44;4954582;29;20028;-50
2022/06/26 01:06:58;;;;;;;5.57;1.63;;;;;;;23.25;53.48;98407.97;4954558;29;20565;-50
2022/06/26 01:09:24;;;;;;;3.38;1.58;;;;;;;23.23;53.06;98402.13;4954419;29;20492;-50
2022/06/26 01:11:51;;;;;;;6.47;1.90;;;;;;;23.09;53.33;98387.88;4955702;28;20062;-49
2022/06/26 01:14:17;;;;;;;8.20;1.55;;;;;;;23.17;53.34;98373.81;4955612;29;20081;-50
2022/06/26 01:16:43;;;;;;;12.85;2.63;;;;;;;23.27;53.62;98379.03;4955620;28;20039;-49
2022/06/26 01:19:10;;;;;;;21.67;7.18;;;;;;;23.36;53.64;98376.47;4954268;29;20023;-49
2022/06/26 01:21:37;;;;;;;5.00;1.67;;;;;;;23.33;53.08;98377.88;4955524;28;20023;-50
2022/06/26 01:24:03;;;;;;;4.07;1.30;;;;;;;23.10;53.06;98376.88;4954253;29;20023;-50
2022/06/26 01:26:30;;;;;;;13.40;2.90;;;;;;;22.88;53.61;98374.75;4955512;28;20062;-49
2022/06/26 01:28:56;;;;;;;7.22;2.35;;;;;;;22.82;54.23;98365.19;4955214;28;20043;-50
2022/06/26 01:31:21;;;;;;;9.70;2.03;;;;;;;22.93;54.42;98376.56;4955334;28;20034;-50
2022/06/26 01:33:48;;;;;;;19.55;2.72;;;;;;;23.07;54.32;98369.41;4955329;29;20090;-49
2022/06/26 01:36:14;;;;;;;7.10;2.58;;;;;;;23.19;53.81;98379.69;4955255;28;20023;-49
2022/06/26 01:38:41;;;;;;;2.72;1.27;;;;;;;23.12;53.72;98377.38;4955242;28;20071;-50
2022/06/26 01:41:07;;;;;;;9.30;1.40;;;;;;;22.99;53.72;98385.31;4955211;28;20050;-50
2022/06/26 01:43:35;;;;;;;10.40;1.88;;;;;;;22.86;54.76;98376.91;4955152;28;20059;-49
2022/06/26 01:46:03;;;;;;;12.48;1.77;;;;;;;22.98;54.43;98381.84;4955005;28;20425;-50
2022/06/26 01:48:30;;;;;;;8.85;1.73;;;;;;;23.04;54.26;98378.03;4954248;28;20023;-50
2022/06/26 01:50:58;;;;;;;9.57;1.95;;;;;;;23.08;54.13;98371.03;4954941;28;20023;-50
2022/06/26 01:53:24;;;;;;;13.77;3.70;;;;;;;23.06;54.41;98378.53;4954969;28;20030;-50
2022/06/26 01:55:50;;;;;;;8.40;1.60;;;;;;;23.22;54.18;98383.66;4955163;28;20032;-50
2022/06/26 01:58:16;;;;;;;10.38;1.70;;;;;;;23.22;54.05;98383.66;4953498;29;20058;-50
2022/06/26 02:00:43;;;;;;;4.00;1.17;;;;;;;23.30;53.52;98375.78;4953475;29;20082;-49
2022/06/26 02:03:10;;;;;;;11.50;1.95;;;;;;;23.28;53.60;98377.97;4954813;28;20051;-49
2022/06/26 02:05:36;;;;;;;15.88;2.22;;;;;;;23.19;53.92;98381.56;4953401;29;20019;-50
2022/06/26 02:08:03;;;;;;;15.75;2.42;;;;;;;23.10;54.34;98405.50;4954600;28;20023;-50
2022/06/26 02:16:01;;;;;;;9.80;1.67;;;;;;;22.87;55.85;98407.94;4955089;29;20516;-49
2022/06/26 02:18:27;;;;;;;6.15;1.83;;;;;;;23.04;55.01;98414.69;4953214;29;20043;-50
2022/06/26 02:20:53;;;;;;;11.35;2.22;;;;;;;23.15;54.78;98424.19;4954705;28;20035;-49
2022/06/26 02:23:19;;;;;;;11.48;2.58;;;;;;;23.10;55.10;98432.28;4953114;29;20038;-50
2022/06/26 02:25:45;;;;;;;4.68;1.20;;;;;;;23.19;54.77;98417.16;4954373;28;20015;-49
2022/06/26 02:28:11;;;;;;;4.00;1.15;;;;;;;23.12;55.69;98408.72;4952738;29;20082;-49
2022/06/26 02:30:37;;;;;;;10.70;2.40;;;;;;;22.89;56.69;98410.31;4954294;28;20032;-49
2022/06/26 02:33:03;;;;;;;2.47;1.50;;;;;;;22.57;57.97;98409.09;4954281;28;20085;-49
2022/06/26 02:35:30;;;;;;;4.50;2.22;;;;;;;22.14;60.24;98409.81;4954260;28;20059;-50
2022/06/26 02:37:57;;;;;;;5.40;1.83;;;;;;;21.71;62.85;98423.03;4954180;28;20030;-49
2022/06/26 02:40:28;;;;;;;4.32;1.80;;;;;;;21.31;64.18;98427.56;4952811;29;20027;-48
2022/06/26 02:42:54;;;;;;;9.73;2.72;;;;;;;20.99;65.55;98436.03;4952759;29;20023;-49
2022/06/26 02:45:21;;;;;;;7.90;2.80;;;;;;;20.87;67.01;98438.22;4954072;28;20034;-49
2022/06/26 02:47:47;;;;;;;11.38;3.00;;;;;;;20.71;68.07;98456.94;4954061;28;20142;-49
2022/06/26 02:50:14;;;;;;;7.05;1.95;;;;;;;20.39;70.04;98467.94;4953919;28;20466;-48
2022/06/26 02:52:40;;;;;;;13.65;3.05;;;;;;;20.01;72.17;98461.31;4968774;28;20073;-48
2022/06/26 02:55:06;;;;;;;14.32;2.80;;;;;;;19.78;74.24;98452.81;4953939;28;20031;-49
2022/06/26 02:57:32;;;;;;;6.28;2.60;;;;;;;19.70;75.50;98455.97;4953993;28;20019;-48
2022/06/26 02:59:58;;;;;;;12.80;4.90;;;;;;;19.68;76.22;98466.88;4953721;28;20512;-48
2022/06/26 03:02:24;;;;;;;22.88;11.25;;;;;;;19.78;77.49;98478.63;4952589;29;20019;-48
2022/06/26 03:04:51;;;;;;;6.25;3.33;;;;;;;19.78;77.51;98490.09;4953802;28;20035;-48
2022/06/26 03:07:18;;;;;;;8.05;2.72;;;;;;;19.70;78.28;98504.69;4952551;29;20039;-48
2022/06/26 03:09:44;;;;;;;18.50;3.33;;;;;;;19.49;78.57;98527.00;4955258;28;20212;-48
2022/06/26 03:12:09;;;;;;;15.50;4.15;;;;;;;19.02;79.76;98531.38;4953481;29;20583;-49
2022/06/26 03:14:35;;;;;;;14.00;4.07;;;;;;;18.65;80.73;98539.38;4954234;29;20024;-49
2022/06/26 03:17:01;;;;;;;16.63;4.35;;;;;;;18.45;81.96;98540.03;4953709;28;20023;-49
2022/06/26 03:19:27;;;;;;;8.95;3.67;;;;;;;18.48;83.17;98526.25;4968507;28;20405;-48
2022/06/26 03:21:53;;;;;;;12.20;3.92;;;;;;;18.46;83.32;98531.00;4968417;28;20030;-49
2022/06/26 03:24:20;;;;;;;15.80;3.60;;;;;;;18.42;83.76;98536.03;4952407;29;20271;-49
2022/06/26 03:26:47;;;;;;;9.93;4.18;;;;;;;18.42;83.93;98538.69;4952334;29;20027;-49
2022/06/26 03:29:13;;;;;;;9.23;4.00;;;;;;;18.33;83.63;98549.00;4953475;28;20047;-50
2022/06/26 03:31:40;;;;;;;13.25;4.78;;;;;;;18.22;84.42;98549.97;4953634;28;20108;-49
2022/06/26 03:34:06;;;;;;;6.95;3.97;;;;;;;18.32;84.81;98554.56;4952270;29;20082;-49
2022/06/26 03:36:33;;;;;;;19.27;4.82;;;;;;;18.44;86.00;98563.16;4952248;29;20053;-48
2022/06/26 03:38:59;;;;;;;10.15;3.38;;;;;;;18.63;86.28;98544.13;4953511;28;20497;-49
2022/06/26 03:41:26;;;;;;;15.90;5.63;;;;;;;18.73;86.62;98541.53;4953524;28;20031;-50
2022/06/26 03:43:52;;;;;;;5.68;3.00;;;;;;;18.80;86.36;98552.78;4953486;28;20114;-49
2022/06/26 03:46:18;;;;;;;16.85;3.92;;;;;;;18.59;85.11;98541.19;4953466;28;20039;-49
2022/06/26 03:48:44;;;;;;;14.57;4.25;;;;;;;18.54;86.28;98533.97;4953405;28;20024;-50
2022/06/26 03:51:10;;;;;;;19.65;4.88;;;;;;;18.73;87.16;98529.06;4953365;28;20396;-49
2022/06/26 03:53:36;;;;;;;9.02;2.75;;;;;;;18.95;86.94;98530.78;4953410;29;20031;-50
2022/06/26 03:56:03;;;;;;;13.63;4.43;;;;;;;18.94;86.31;98530.00;4953359;28;20032;-50
2022/06/26 03:58:29;;;;;;;13.45;3.10;;;;;;;18.93;86.44;98515.09;4953324;28;20023;-50
2022/06/26 04:00:54;;;;;;;9.98;3.17;;;;;;;18.70;85.60;98508.31;4953361;28;20034;-49
2022/06/26 04:03:21;;;;;;;10.75;3.00;;;;;;;18.49;85.75;98493.28;4953378;28;20031;-49
2022/06/26 04:05:47;;;;;;;16.88;5.88;;;;;;;18.33;85.58;98490.53;4953273;28;20038;-49
2022/06/26 04:08:14;;;;;;;11.52;4.28;;;;;;;18.38;87.15;98492.44;4953221;28;20031;-49
2022/06/26 04:10:41;;;;;;;12.75;4.22;;;;;;;18.70;88.36;98505.66;4953204;28;20058;-49
2022/06/26 04:13:10;;;;;;;15.55;4.55;;;;;;;18.95;88.77;98505.00;4955595;28;20051;-49
2022/06/26 04:15:37;;;;;;;10.35;3.03;;;;;;;19.04;87.85;98507.19;4956733;28;20378;-49
2022/06/26 04:18:04;;;;;;;7.57;2.15;;;;;;;18.79;86.58;98500.66;4971537;28;20445;-50
2022/06/26 04:20:30;;;;;;;7.15;2.42;;;;;;;18.41;86.36;98499.06;4955336;29;20042;-49
2022/06/26 04:23:10;;;;;;;5.15;2.53;;;;;;;18.04;86.46;98490.06;4955338;29;20023;-49
2022/06/26 04:25:38;;;;;;;3.88;2.78;;;;;;;17.71;86.71;98491.09;4956597;28;20031;-49
2022/06/26 04:28:06;;;;;;;4.25;3.33;;;;;;;17.51;87.46;98495.13;4970987;28;20051;-48
2022/06/26 04:30:32;;;;;;;4.88;2.47;;;;;;;17.47;87.92;98488.72;4956431;28;20027;-49
2022/06/26 04:32:57;;;;;;;5.55;2.72;;;;;;;17.35;88.29;98488.88;4955145;29;20375;-48
2022/06/26 04:35:23;;;;;;;6.57;3.00;;;;;;;17.36;88.68;98497.63;4956360;28;20030;-51
2022/06/26 04:37:49;;;;;;;5.32;1.83;;;;;;;17.41;88.59;98489.72;4956359;28;20247;-51
2022/06/26 04:40:15;;;;;;;4.60;2.40;;;;;;;17.34;88.95;98487.28;4954959;29;20035;-51
2022/06/26 04:42:42;;;;;;;6.82;3.13;;;;;;;17.26;88.98;98485.03;4956214;28;20027;-51
2022/06/26 04:45:10;;;;;;;4.70;2.47;;;;;;;17.43;89.74;98489.47;4956235;28;20102;-51
2022/06/26 04:47:37;;;;;;;19.10;11.75;;;;;;;17.43;89.57;98492.94;4956165;28;20390;-51
2022/06/26 04:50:04;;;;;;;8.85;3.42;;;;;;;17.69;90.30;98488.69;4955997;28;20038;-51
2022/06/26 04:52:29;;;;;;;9.93;2.92;;;;;;;17.70;89.97;98495.56;4956169;28;20027;-51
2022/06/26 04:54:55;;;;;;;6.80;2.17;;;;;;;17.73;88.99;98496.94;4954749;29;20402;-51
2022/06/26 04:57:22;;;;;;;5.25;2.55;;;;;;;17.73;88.79;98484.47;4955979;29;20034;-51
2022/06/26 04:59:48;;;;;;;4.43;3.33;;;;;;;17.79;88.83;98482.66;4955970;28;20031;-51
2022/06/26 05:02:13;;;;;;;2.33;1.60;;;;;;;17.79;88.56;98477.34;4955931;28;20023;-51
2022/06/26 05:04:39;;;;;;;11.63;3.13;;;;;;;17.70;88.58;98477.00;4955833;29;20523;-51
2022/06/26 05:07:05;;;;;;;4.18;2.83;;;;;;;17.74;89.38;98477.28;4955851;28;20086;-51
2022/06/26 05:09:31;;;;;;;9.68;2.13;;;;;;;18.03;90.65;98480.50;4955765;28;20078;-51
2022/06/26 05:11:57;;;;;;;6.18;2.30;;;;;;;18.22;90.02;98485.41;4954567;29;20378;-51
2022/06/26 05:14:23;;;;;;;12.77;2.42;;;;;;;18.22;89.06;98480.09;4955723;28;20063;-51
2022/06/26 05:16:49;;;;;;;11.25;5.10;;;;;;;18.52;90.06;98482.94;4955648;28;20461;-51
2022/06/26 05:19:16;;;;;;;6.45;2.33;;;;;;;18.75;89.74;98488.91;4955627;28;20572;-51
2022/06/26 05:21:42;;;;;;;5.03;1.77;;;;;;;18.73;89.08;98485.72;4955537;28;20445;-51
2022/06/26 05:24:08;;;;;;;13.13;4.07;;;;;;;18.82;89.05;98483.41;4953110;28;20035;-51
2022/06/26 05:26:34;;;;;;;26.00;2.92;;;;;;;19.05;89.22;98487.47;4954147;29;20023;-50
2022/06/26 05:29:00;;;;;;;20.80;3.45;;;;;;;18.99;88.70;98491.19;4955181;28;20040;-51
2022/06/26 05:31:27;;;;;;;17.38;3.78;;;;;;;18.90;88.68;98489.03;4955381;28;20030;-51
2022/06/26 05:33:53;;;;;;;19.70;3.25;;;;;;;18.95;88.92;98498.88;4955409;28;20058;-51
2022/06/26 05:36:19;;;;;;;5.40;1.70;;;;;;;18.81;87.71;98519.81;4953976;29;20126;-51
2022/06/26 05:38:45;;;;;;;9.07;2.33;;;;;;;18.32;85.82;98478.31;4953957;29;20130;-51
2022/06/26 05:41:10;;;;;;;3.25;1.70;;;;;;;17.93;87.09;98464.50;4955221;28;20023;-51
2022/06/26 05:43:36;;;;;;;6.68;3.00;;;;;;;17.70;88.38;98458.41;4953827;29;20023;-52
2022/06/26 05:46:02;;;;;;;10.48;3.25;;;;;;;17.69;89.52;98464.78;4955121;28;20042;-52
2022/06/26 05:48:28;;;;;;;13.50;6.15;;;;;;;18.01;90.47;98473.81;4953758;29;20108;-52
2022/06/26 05:50:54;;;;;;;4.38;3.17;;;;;;;18.60;91.53;98471.03;4953726;29;20509;-51
2022/06/26 05:53:22;;;;;;;5.82;1.90;;;;;;;18.93;90.94;98469.91;4953787;29;20038;-51
2022/06/26 05:55:48;;;;;;;4.25;1.80;;;;;;;19.05;89.90;98450.25;4954906;28;20147;-51
2022/06/26 05:58:14;;;;;;;2.80;1.60;;;;;;;18.99;89.10;98435.34;4953592;29;20117;-50
2022/06/26 06:00:40;;;;;;;6.30;1.77;;;;;;;19.31;89.33;98438.59;4969586;28;20042;-51
2022/06/26 06:03:06;;;;;;;2.80;1.20;;;;;;;20.39;86.65;98429.81;4954802;28;20393;-50
2022/06/26 06:05:33;;;;;;;1.95;0.98;;;;;;;20.52;82.92;98430.06;4953460;29;20035;-49
2022/06/26 06:07:59;;;;;;;4.65;1.60;;;;;;;20.13;83.15;98443.97;4954696;28;20447;-49
2022/06/26 06:10:25;;;;;;;1.60;1.15;;;;;;;21.05;81.28;98434.13;4954703;28;20259;-49
2022/06/26 06:12:52;;;;;;;6.90;6.40;;;;;;;21.68;78.28;98439.63;4954631;28;20019;-49
2022/06/26 06:15:19;;;;;;;4.00;1.50;;;;;;;23.39;74.71;98442.06;4954584;28;20059;-49
2022/06/26 06:17:45;;;;;;;3.65;1.00;;;;;;;24.74;70.64;98434.16;4954522;28;20075;-50
2022/06/26 06:20:15;;;;;;;3.47;0.90;;;;;;;24.64;68.04;98429.78;4954751;29;20035;-50
2022/06/26 06:22:44;;;;;;;2.88;1.00;;;;;;;23.53;68.14;98426.84;4953171;29;20539;-50
2022/06/26 06:25:10;;;;;;;0.75;0.50;;;;;;;23.24;70.47;98440.38;4954458;28;20086;-50
2022/06/26 06:27:36;;;;;;;4.28;1.70;;;;;;;24.67;68.95;98418.44;4954121;28;20059;-50
2022/06/26 06:30:04;;;;;;;1.75;1.15;;;;;;;26.41;62.81;98422.44;4954332;28;20082;-49
2022/06/26 06:32:30;;;;;;;6.28;1.30;;;;;;;27.79;60.60;98412.13;4954265;28;20031;-49
2022/06/26 06:34:56;;;;;;;4.55;1.10;;;;;;;29.07;55.41;98407.56;4953958;28;20019;-51
2022/06/26 06:37:22;;;;;;;5.13;3.08;;;;;;;30.06;54.34;98411.50;4954201;28;20509;-50
2022/06/26 06:39:48;;;;;;;14.40;9.38;;;;;;;30.28;52.61;98404.03;4954151;28;20082;-49
2022/06/26 06:42:13;;;;;;;2.08;0.98;;;;;;;31.23;50.60;98410.06;4954150;28;20074;-50
2022/06/26 06:44:39;;;;;;;4.88;0.90;;;;;;;31.93;47.47;98411.53;4954104;29;20058;-50
2022/06/26 06:47:06;;;;;;;5.80;1.58;;;;;;;31.90;47.45;98420.41;4954025;28;20059;-50
2022/06/26 06:49:32;;;;;;;4.20;0.68;;;;;;;32.10;47.22;98412.41;4954005;28;20106;-50
2022/06/26 06:51:57;;;;;;;4.45;1.17;;;;;;;32.19;45.80;98423.84;4953976;28;20557;-49
2022/06/26 06:54:24;;;;;;;9.35;1.75;;;;;;;32.70;47.67;98423.13;4953983;28;20398;-50
2022/06/26 06:56:50;;;;;;;3.15;1.00;;;;;;;33.61;43.59;98421.91;4953970;28;20031;-50
2022/06/26 06:59:15;;;;;;;6.82;1.65;;;;;;;34.24;43.14;98411.78;4953948;28;20042;-50
2022/06/26 07:01:41;;;;;;;0.70;0.50;;;;;;;34.79;40.07;98413.00;4953882;29;20033;-50
2022/06/26 07:04:08;;;;;;;4.65;0.80;;;;;;;34.92;38.95;98412.78;4953932;29;20027;-48
2022/06/26 07:06:33;;;;;;;6.65;1.45;;;;;;;35.26;38.68;98413.63;4952548;29;20109;-50
2022/06/26 07:08:59;;;;;;;1.45;0.77;;;;;;;35.65;37.77;98412.47;4953749;29;20544;-51
2022/06/26 07:11:25;;;;;;;21.52;7.35;;;;;;;35.86;38.79;98423.66;4953798;28;20464;-50
2022/06/26 07:13:51;;;;;;;10.35;1.50;;;;;;;36.47;37.64;98423.38;4953790;29;20059;-50
2022/06/26 07:16:17;;;;;;;3.13;0.65;;;;;;;36.73;36.41;98425.91;4953772;29;20102;-50
2022/06/26 07:18:43;;;;;;;4.45;1.52;;;;;;;36.55;36.63;98428.50;4953749;28;20027;-50
2022/06/26 07:21:09;;;;;;;5.75;1.42;;;;;;;36.66;36.48;98430.53;4953988;29;20130;-49
2022/06/26 07:23:34;;;;;;;1.10;0.82;;;;;;;37.04;36.26;98429.19;4953706;28;20433;-51
2022/06/26 07:26:00;;;;;;;0.50;0.47;;;;;;;37.53;34.96;98440.72;4953600;29;20513;-51
2022/06/26 07:28:26;;;;;;;0.90;0.60;;;;;;;37.37;35.22;98441.88;4957041;28;20070;-49
2022/06/26 07:30:54;;;;;;;1.73;0.60;;;;;;;37.43;33.96;98439.53;4952293;29;20035;-48
2022/06/26 07:36:05;;;;;;;7.15;1.35;;;;;;;36.69;34.07;98432.53;4953883;29;20110;-50
2022/06/26 07:38:31;;;;;;;2.55;0.80;;;;;;;36.64;32.77;98433.66;4953537;28;20102;-51
2022/06/26 07:40:57;;;;;;;5.05;1.10;;;;;;;36.82;32.84;98436.50;4952192;29;20041;-51
2022/06/26 07:43:23;;;;;;;4.80;1.05;;;;;;;37.35;31.06;98438.72;4953493;28;20501;-52
2022/06/26 07:45:49;;;;;;;2.95;1.00;;;;;;;37.87;29.72;98427.53;4952161;28;20030;-51
2022/06/26 07:48:15;;;;;;;2.05;0.80;;;;;;;38.29;29.69;98423.25;4956156;29;20062;-51
2022/06/26 07:50:41;;;;;;;2.00;0.90;;;;;;;38.60;28.74;98422.81;4955903;29;20039;-51
2022/06/26 07:53:07;;;;;;;1.48;0.90;;;;;;;39.14;28.17;98418.78;4957181;28;20094;-51
2022/06/26 07:55:32;;;;;;;4.53;0.90;;;;;;;39.96;26.98;98429.72;4957152;28;20107;-51
2022/06/26 07:57:58;;;;;;;2.58;0.70;;;;;;;40.64;25.90;98429.91;4955844;29;20031;-51
2022/06/26 08:00:24;;;;;;;3.95;0.75;;;;;;;40.78;25.59;98420.75;4956994;29;20070;-51
2022/06/26 08:02:50;;;;;;;2.50;0.80;;;;;;;41.44;24.58;98414.06;4957038;28;20543;-49
2022/06/26 08:05:16;;;;;;;2.63;0.90;;;;;;;41.76;24.26;98412.84;4956996;28;20035;-50
2022/06/26 08:07:43;;;;;;;6.22;1.58;;;;;;;40.09;26.04;98414.31;4956909;28;20024;-49
2022/06/26 08:10:08;;;;;;;3.13;0.77;;;;;;;38.43;27.47;98400.50;4955531;29;20476;-51
2022/06/26 08:12:34;;;;;;;2.55;0.73;;;;;;;38.71;27.65;98405.16;4956806;28;20055;-51
2022/06/26 08:15:00;;;;;;;1.98;0.90;;;;;;;39.40;26.78;98405.72;4956762;29;20485;-51
2022/06/26 08:17:26;;;;;;;1.88;0.70;;;;;;;40.16;25.92;98411.50;4955455;29;20053;-50
2022/06/26 08:19:51;;;;;;;2.53;0.75;;;;;;;39.73;26.10;98389.84;4956708;29;20039;-49
2022/06/26 08:22:17;;;;;;;3.22;0.73;;;;;;;38.76;27.78;98395.78;4956594;29;20019;-50
2022/06/26 08:24:43;;;;;;;5.97;1.00;;;;;;;37.42;29.27;98415.28;4956617;28;20024;-51
2022/06/26 08:27:09;;;;;;;1.55;0.65;;;;;;;35.93;30.92;98401.84;4955392;29;20058;-50
2022/06/26 08:29:35;;;;;;;3.83;1.30;;;;;;;35.27;32.61;98400.75;4956281;28;20055;-50
2022/06/26 08:32:01;;;;;;;2.17;0.63;;;;;;;36.17;30.89;98405.19;4956470;28;20508;-50
2022/06/26 08:34:28;;;;;;;3.13;0.93;;;;;;;35.95;30.97;98396.78;4955144;29;20038;-50
2022/06/26 08:36:54;;;;;;;2.92;0.90;;;;;;;35.97;30.85;98394.47;4956410;28;20401;-51
2022/06/26 08:39:21;;;;;;;1.52;0.90;;;;;;;37.49;28.93;98404.34;4956367;28;20064;-50
2022/06/26 08:41:47;;;;;;;4.13;1.05;;;;;;;38.26;28.32;98395.84;4956355;28;20031;-50
2022/06/26 08:44:13;;;;;;;3.67;0.82;;;;;;;37.55;29.12;98400.84;4956542;28;20046;-51
2022/06/26 08:46:41;;;;;;;6.15;1.95;;;;;;;36.27;30.18;98404.50;4956164;28;20066;-51
2022/06/26 08:49:17;;;;;;;3.30;0.90;;;;;;;34.49;32.72;98410.22;4956135;28;20032;-50
2022/06/26 08:51:46;;;;;;;1.98;0.80;;;;;;;33.18;35.06;98413.72;4956448;28;20445;-50
2022/06/26 08:54:14;;;;;;;3.75;0.95;;;;;;;32.63;36.17;98418.31;4956106;28;20019;-49
2022/06/26 08:56:42;;;;;;;6.50;1.30;;;;;;;32.24;36.99;98412.75;4954798;29;20027;-49
2022/06/26 08:59:09;;;;;;;5.82;1.35;;;;;;;31.87;37.42;98410.22;4955837;28;20027;-50
2022/06/26 09:01:36;;;;;;;7.65;1.35;;;;;;;31.61;38.33;98427.81;4955898;28;20043;-50
2022/06/26 09:04:02;;;;;;;1.70;0.80;;;;;;;31.48;38.61;98425.50;4955877;28;20023;-50
2022/06/26 09:06:28;;;;;;;5.60;0.95;;;;;;;31.25;38.94;98423.28;4955884;28;20382;-50
2022/06/26 09:08:54;;;;;;;2.03;0.90;;;;;;;30.96;39.83;98422.44;4955789;29;20397;-50
2022/06/26 09:11:20;;;;;;;6.55;1.50;;;;;;;30.59;40.65;98418.97;4955740;29;20031;-50
2022/06/26 09:13:49;;;;;;;8.45;1.45;;;;;;;30.32;41.25;98434.75;4954502;29;20024;-49
2022/06/26 09:16:15;;;;;;;5.38;1.45;;;;;;;30.53;41.18;98428.47;4955741;28;20035;-50
2022/06/26 09:18:42;;;;;;;4.57;1.55;;;;;;;31.20;40.21;98434.34;4954495;29;20035;-49
2022/06/26 09:21:10;;;;;;;6.90;1.90;;;;;;;31.71;39.02;98436.56;4955868;28;20023;-50
2022/06/26 09:23:37;;;;;;;3.67;1.50;;;;;;;31.69;38.67;98433.41;4955836;28;20384;-50
2022/06/26 09:26:04;;;;;;;6.13;1.67;;;;;;;31.65;38.77;98433.31;4955446;28;20421;-50
2022/06/26 09:28:31;;;;;;;5.93;1.60;;;;;;;31.31;39.15;98438.19;4955161;28;20150;-50
2022/06/26 09:31:02;;;;;;;4.70;1.65;;;;;;;30.45;40.08;98432.84;4955463;28;20038;-49
2022/06/26 09:33:33;;;;;;;5.43;1.77;;;;;;;29.79;41.48;98436.44;4954110;29;20505;-50
2022/06/26 09:36:01;;;;;;;7.85;2.22;;;;;;;29.41;42.59;98449.00;4955322;28;20469;-50
2022/06/26 09:38:32;;;;;;;3.72;1.40;;;;;;;29.22;42.93;98449.47;4955363;28;20031;-50
2022/06/26 09:41:00;;;;;;;4.00;1.33;;;;;;;29.15;43.09;98441.09;4970097;28;20031;-50
2022/06/26 09:43:27;;;;;;;3.90;1.77;;;;;;;29.10;43.12;98449.38;4955208;28;20106;-50
2022/06/26 09:45:54;;;;;;;4.18;1.55;;;;;;;28.84;43.37;98442.22;4953822;29;20113;-49
2022/06/26 09:48:23;;;;;;;3.08;1.40;;;;;;;28.61;44.16;98438.22;4953725;29;20531;-50
2022/06/26 09:50:49;;;;;;;4.40;1.80;;;;;;;28.29;44.72;98448.50;4955024;28;20393;-49
2022/06/26 09:53:16;;;;;;;5.80;1.80;;;;;;;28.00;45.40;98441.16;4953821;29;20030;-50
2022/06/26 09:55:42;;;;;;;4.97;1.40;;;;;;;27.62;46.44;98436.41;4954966;28;20019;-50
2022/06/26 09:58:08;;;;;;;3.45;1.70;;;;;;;27.40;46.80;98450.88;4954891;28;20397;-49
2022/06/26 10:00:35;;;;;;;6.25;2.00;;;;;;;27.17;47.28;98432.13;4954854;28;20027;-49
2022/06/26 10:08:36;;;;;;;4.30;1.98;;;;;;;28.19;45.31;98427.25;4953882;29;20425;-49
2022/06/26 10:11:03;;;;;;;4.00;1.60;;;;;;;28.86;44.16;98426.50;4954082;28;20030;-50
2022/06/26 10:13:33;;;;;;;4.00;1.42;;;;;;;29.45;43.05;98416.69;4954688;28;20146;-49
2022/06/26 10:16:05;;;;;;;5.90;1.50;;;;;;;29.65;42.14;98421.25;4954620;28;20027;-49
2022/06/26 10:18:39;;;;;;;1.77;1.30;;;;;;;29.71;41.89;98412.94;4954579;29;20510;-50
2022/06/26 10:21:12;;;;;;;2.40;1.38;;;;;;;29.78;42.22;98407.81;4954541;28;20030;-50
2022/06/26 10:23:40;;;;;;;2.42;1.40;;;;;;;30.21;41.80;98407.31;4954802;28;20038;-50
2022/06/26 10:26:18;;;;;;;3.75;1.42;;;;;;;31.23;39.53;98401.94;4953106;29;20023;-50
2022/06/26 10:29:07;;;;;;;4.07;1.23;;;;;;;32.37;37.54;98395.19;4954100;28;20203;-50
2022/06/26 10:31:48;;;;;;;3.00;1.48;;;;;;;33.50;35.19;98391.75;4954626;28;20031;-50
2022/06/26 10:34:15;;;;;;;2.63;1.42;;;;;;;33.61;34.59;98395.50;4954322;28;20501;-50
2022/06/26 10:36:41;;;;;;;3.25;1.20;;;;;;;33.27;34.83;98386.28;4954287;28;20397;-50
2022/06/26 10:39:07;;;;;;;6.00;1.40;;;;;;;32.85;35.99;98389.69;4954267;28;20535;-50
2022/06/26 10:44:45;;;;;;;7.90;1.48;;;;;;;31.79;37.72;98384.03;4954375;29;20507;-50
2022/06/26 10:47:15;;;;;;;2.87;1.13;;;;;;;31.61;38.04;98375.44;4954197;28;20118;-50
2022/06/26 10:49:52;;;;;;;1.55;1.00;;;;;;;32.17;37.39;98372.59;4954028;28;20357;-50
2022/06/26 10:52:28;;;;;;;3.88;1.35;;;;;;;33.61;35.46;98370.22;4954053;28;20058;-50
2022/06/26 10:54:57;;;;;;;4.85;1.60;;;;;;;34.30;34.00;98364.00;4954089;28;20027;-50
2022/06/26 10:57:37;;;;;;;4.72;1.65;;;;;;;34.51;33.84;98364.31;4953971;28;20023;-49
2022/06/26 11:00:07;;;;;;;6.15;1.35;;;;;;;34.39;33.84;98354.41;4953953;28;20029;-50
2022/06/26 11:02:41;;;;;;;9.25;1.80;;;;;;;34.22;33.94;98349.47;4953875;28;20106;-49
2022/06/26 11:05:09;;;;;;;4.22;1.27;;;;;;;34.20;33.63;98349.84;4953938;28;20035;-50
2022/06/26 11:07:46;;;;;;;3.97;1.17;;;;;;;33.90;33.20;98349.72;4953848;28;20019;-50
2022/06/26 11:10:20;;;;;;;3.28;1.08;;;;;;;34.09;33.54;98350.78;4953784;28;20106;-50
2022/06/26 11:12:49;;;;;;;;;;;;;;;35.88;32.79;98342.13;4954205;28;20019;-51
2022/06/26 11:15:22;;;;;;;6.60;1.65;;;;;;;37.25;29.95;98340.94;4953762;28;19911;-48
2022/06/26 11:17:57;;;;;;;8.10;1.70;;;;;;;38.26;28.01;98335.53;4952470;29;20027;-50
2022/06/26 11:23:15;;;;;;;5.90;1.40;;;;;;;38.31;27.35;98335.13;4957807;29;20039;-50
2022/06/26 11:25:41;;;;;;;5.28;1.00;;;;;;;37.25;28.02;98340.16;4957728;28;20089;-51
2022/06/26 11:28:11;;;;;;;11.15;1.98;;;;;;;35.89;29.74;98349.13;4957334;28;20047;-50
2022/06/26 11:30:39;;;;;;;6.50;1.00;;;;;;;35.00;30.98;98340.81;4957503;28;20077;-50
2022/06/26 11:33:06;;;;;;;5.90;1.20;;;;;;;34.32;32.47;98342.63;4956259;29;20035;-50
2022/06/26 11:35:34;;;;;;;3.60;1.73;;;;;;;34.19;32.90;98331.94;4957467;28;20118;-49
2022/06/26 11:38:09;;;;;;;3.38;1.00;;;;;;;34.78;32.38;98328.84;4957562;28;20033;-50
2022/06/26 11:40:34;;;;;;;11.18;2.33;;;;;;;35.55;30.94;98330.09;4957461;28;20501;-50
2022/06/26 11:43:01;;;;;;;7.68;1.30;;;;;;;36.09;30.30;98330.56;4972191;28;20037;-48
2022/06/26 11:45:31;;;;;;;27.33;2.58;;;;;;;35.92;30.97;98329.28;4957324;28;20027;-48
2022/06/26 11:47:56;;;;;;;11.52;1.85;;;;;;;35.87;30.84;98334.28;4957570;28;20031;-48
2022/06/26 11:50:27;;;;;;;5.70;1.83;;;;;;;35.34;31.37;98332.63;4957155;29;20024;-48